Mikonos, Greece

1:10 PM EEST on August 23, 2014 (GMT +0300)
Mikonos | Change Station
CLOSE
Current Station
Airport
Location: Mikonos,
Elevation: 404 ft
Nearby Weather Stations
Active Advisory: Extreme high temperature

Elev 404 ft 37.44 °N, 25.35 °E | Updated 20 minutes ago

Clear
Clear
86 °F
Feels Like 88 °F
N
15
Wind Variable Wind from North

Today
High -- | Low -- °F
--% Chance of Precip.
Yesterday
High -- | Low -- °F
Precip. -- in
6:41 AM 8:00 PM
Waning Crescent, 4% visible
Pressure 29.92 in
Visibility -9999.0 miles
Clouds
Heat Index 88 °F
Dew Point 66 °F
Humidity 51%
Rainfall 0.00 in
Snow Depth Not available.
UV Not available.
Pollen Not available.
Air Quality Not available.
Flu Activity Not available.
METAR LGMK 230950Z 01013KT CAVOK 30/19 Q1013

More Conditions Fewer Conditions

Pressure 29.92 in
Visibility -9999.0 miles
Clouds
Heat Index 88 °F
Dew Point 66 °F
Humidity 51%
Rainfall 0.00 in
Snow Depth Not available.
UV Not available.
Pollen Not available.
Air Quality Not available.
Flu Activity Not available.
METAR LGMK 230950Z 01013KT CAVOK 30/19 Q1013

More Conditions Fewer Conditions

10-Day Weather Forecast

Almanac

Astronomy

Aug. 23, 2014 Rise Set
Actual Time 6:41 AM EEST 8:00 PM EEST
Civil Twilight 6:13 AM EEST 8:27 PM EEST
Nautical Twilight 5:41 AM EEST 9:00 PM EEST
Astronomical Twilight 5:07 AM EEST 9:34 PM EEST
Moon 4:41 AM EEST 6:33 PM EEST
Length of Visible Light 14h 13m
Length of Day
13h 19m
Tomorrow will be 2m 13s shorter.
Waning Crescent, 4% of the Moon is Illuminated
Today
Waning Crescent
Aug 25
New
Sep 2
First Quarter
Sep 8
Full
Sep 15
Last Quarter

Yesterday's Extremes

Country Highs Country Lows

Community

WunderPhotos

Upload Photos

1,746,396 photos uploaded!

WunderBlogs® & News

By Dr. Jeff Masters
Director of Meteorology, Weather Underground
By Kari Strenfel
Meteorologist, Weather Underground
By Christopher C. Burt
Weather Historian, Weather Underground
August 23, 2014
August 23, 2014
August 22, 2014

Nearby

Snow Depth

Not available.

Earthquake Activity

City Distance Mag. Time & Date
No recent earthquake activity has been reported nearby.
Minimum magnitude displayed is 2.5.

Coastal Water Temperatures

Place Temperature
No Stations Reporting

Nearby Weather Stations